• Join FlightAware (Why Join?)
  • Login
  • US Flag 
02:32PM EDT


 

Airport Tracker/Info


-or-


 

Live Flight TrackerFlight Track Log ✈ N917DE ✈ 06-May-2012 ✈ KATL - KCLT

Flight Track Log - Related Links

Times and Time Zones

All times are in EDT time to prevent confusion due to time zone crossing. See the N917DE flight status page for this flight to view local times or setup timezone preferences in your user account.

Time Position Orientation Groundspeed Altitude Reporting Facility
EDT Latitude Longitude Course Direction KTS MPH feet Rate Location/Type
08:57PM 33.6353 -84.3408 88° East 449 517 3,700  Level Atlanta Center
09:02PM 33.6500 -83.8192 86° East 374 430 27,000 2,220 Climbing Atlanta Center
09:03PM 33.6581 -83.6819 66° East 396 456 17,300 -1,020 Descending Atlanta Center
09:06PM 33.8044 -83.2864 65° Northeast 434 499 23,000 1,980 Climbing Atlanta Center
09:07PM 33.8578 -83.1483 63° Northeast 439 505 25,300 1,980 Climbing Atlanta Center
09:08PM 33.9131 -83.0175 65° Northeast 439 505 27,000 840 Climbing Atlanta Center
09:09PM 33.9622 -82.8892 64° Northeast 427 491 27,000  Level Atlanta Center
09:10PM 34.0150 -82.7556 64° Northeast 427 491 27,000  Level Atlanta Center
09:11PM 34.0719 -82.6144 65° Northeast 427 491 27,000  Level Atlanta Center
09:12PM 34.1125 -82.5083 65° Northeast 427 491 27,000 -960 Level Atlanta Center
09:13PM 34.1689 -82.3642 65° Northeast 427 491 25,100 -1,500 Descending Atlanta Center
09:14PM 34.2192 -82.2325 59° Northeast 427 491 24,000 -780 Descending Atlanta Center
09:15PM 34.2800 -82.1106 45° Northeast 421 484 23,600 -1,020 Descending Atlanta Center
09:16PM 34.3619 -82.0106 46° Northeast 421 484 22,000 -2,040 Descending Atlanta Center
09:17PM 34.4394 -81.9131 46° Northeast 410 472 19,600 -2,340 Descending Atlanta Center
09:18PM 34.5131 -81.8203 46° Northeast 392 451 17,400 -2,460 Descending Atlanta Center
09:19PM 34.5947 -81.7172 46° Northeast 383 441 14,700 -2,400 Descending Atlanta Center
09:20PM 34.6639 -81.6294 46° Northeast 373 429 12,600 -1,320 Descending Atlanta Center
09:21PM 34.7269 -81.5494 44° Northeast 352 405 12,100 -360 Descending Atlanta Center
09:22PM 34.7717 -81.4975 46° Northeast 296 341 12,000 -60 Descending Atlanta Center
09:23PM 34.8247 -81.4300 46° Northeast 293 337 12,000  Level Atlanta Center
09:24PM 34.8794 -81.3600 49° Northeast 292 336 12,000 -540 Level Atlanta Center
09:25PM 34.9381 -81.2769 45° Northeast 291 335 11,000 -1,200 Descending Atlanta Center
09:26PM 34.9908 -81.2119 46° Northeast 279 321 9,600 -960 Descending Atlanta Center
09:27PM 35.0436 -81.1442 47° Northeast 275 316 9,100 -360 Descending Atlanta Center
09:28PM 35.0806 -81.0950 32° Northeast 273 314 9,000 -120 Descending FAA TRACON SMA TRACON (SMA)
09:29PM 35.1239 -81.0614 355° North 279 321 9,000 -360 Level FAA TRACON SMA TRACON (SMA)
09:29PM 35.1714 -81.0664 357° North 273 314 8,600 -1,140 Descending FAA TRACON SMA TRACON (SMA)
09:30PM 35.2256 -81.0703 357° North 278 320 7,500 -1,740 Descending FAA TRACON SMA TRACON (SMA)
09:31PM 35.2786 -81.0742 357° North 274 315 6,300 -1,500 Descending FAA TRACON SMA TRACON (SMA)
09:31PM 35.3242 -81.0772 35° Northeast 264 304 5,500 -1,080 Descending FAA TRACON SMA TRACON (SMA)
09:32PM 35.3564 -81.0492 85° East 229 264 4,900 -1,440 Descending FAA TRACON SMA TRACON (SMA)
09:33PM 35.3603 -80.9994 128° Southeast 215 247 3,600 -1,500 Descending FAA TRACON SMA TRACON (SMA)
09:33PM 35.3397 -80.9672 171° South 205 236 3,000 -1,080 Descending FAA TRACON SMA TRACON (SMA)
09:34PM 35.3042 -80.9600 176° South 193 222 2,200 -1,080 Descending FAA TRACON SMA TRACON (SMA)
09:35PM 35.2731 -80.9572 176° South 163 188 1,600 -780 Descending FAA TRACON SMA TRACON (SMA)
09:35PM 35.2478 -80.9550 176° South 150 173 1,200 -600 Descending FAA TRACON SMA TRACON (SMA)
09:36PM 35.2283 -80.9533 176° South 150 173 800 -600 Descending FAA TRACON SMA TRACON (SMA)